createdAt,value
2023-05-17T00:00:26.988Z,100264.44
2023-05-17T00:02:54.917Z,100265.41
2023-05-17T00:05:23.153Z,100270.38
2023-05-17T00:07:51.507Z,100271.91
2023-05-17T00:10:19.652Z,100274.53
2023-05-17T00:12:47.590Z,100270.13
2023-05-17T00:15:15.782Z,100277.88
2023-05-17T00:17:45.262Z,100278.72
2023-05-17T00:20:13.926Z,100273.59
2023-05-17T00:22:43.311Z,100278.56
2023-05-17T00:25:11.310Z,100279.38
2023-05-17T00:27:39.668Z,100275.81
2023-05-17T00:30:08.997Z,100278.31
2023-05-17T00:32:36.968Z,100273.06
2023-05-17T00:35:07.168Z,100276.50
2023-05-17T00:37:35.149Z,100276.34
2023-05-17T00:40:03.276Z,100277.19
2023-05-17T00:42:31.267Z,100277.06
2023-05-17T00:44:59.181Z,100272.50
2023-05-17T00:47:27.086Z,100267.53
2023-05-17T00:49:55.065Z,100270.03
2023-05-17T00:52:24.586Z,100266.56
2023-05-17T00:54:53.232Z,100271.94
2023-05-17T00:57:21.544Z,100270.03
2023-05-17T00:59:52.111Z,100272.66
2023-05-17T01:02:20.092Z,100273.47
2023-05-17T01:04:49.275Z,100270.97
2023-05-17T01:07:17.687Z,100263.94
2023-05-17T01:09:47.248Z,100274.31
2023-05-17T01:12:25.681Z,100267.25
2023-05-17T01:15:04.665Z,100269.06
2023-05-17T01:17:40.885Z,100267.41
2023-05-17T01:20:18.642Z,100263.22
2023-05-17T01:22:55.166Z,100265.84
2023-05-17T01:25:35.261Z,100269.19
2023-05-17T01:28:06.528Z,100273.88
2023-05-17T01:30:36.967Z,100272.22
2023-05-17T01:33:05.368Z,100278.56
2023-05-17T01:35:33.331Z,100277.59
2023-05-17T01:38:01.336Z,100281.88
2023-05-17T01:40:29.732Z,100281.75
2023-05-17T01:43:01.373Z,100275.69
2023-05-17T01:45:38.064Z,100281.47
2023-05-17T01:48:16.663Z,100281.47
2023-05-17T01:50:46.697Z,100279.13
2023-05-17T01:53:22.477Z,100280.78
2023-05-17T01:55:53.046Z,100284.22
2023-05-17T01:58:24.336Z,100280.78
2023-05-17T02:00:56.858Z,100277.31
2023-05-17T02:03:25.370Z,100270.44
2023-05-17T02:05:53.333Z,100268.75
2023-05-17T02:08:21.281Z,100266.97
2023-05-17T02:10:49.244Z,100261.72
2023-05-17T02:13:17.238Z,100270.84
2023-05-17T02:15:45.196Z,100272.75
2023-05-17T02:18:14.701Z,100273.28
2023-05-17T02:20:42.800Z,100276.88
2023-05-17T02:23:10.705Z,100274.38
2023-05-17T02:25:38.716Z,100271.91
2023-05-17T02:28:06.568Z,100270.47
2023-05-17T02:30:34.524Z,100273.09
2023-05-17T02:33:02.498Z,100274.34
2023-05-17T02:35:31.884Z,100270.47
2023-05-17T02:37:59.869Z,100272.38
2023-05-17T02:40:27.904Z,100268.81
2023-05-17T02:42:55.844Z,100268.81
2023-05-17T02:45:23.736Z,100267.25
2023-05-17T02:47:51.625Z,100263.69
2023-05-17T02:50:19.739Z,100265.47
2023-05-17T02:52:49.004Z,100263.84
2023-05-17T02:55:17.163Z,100271.56
2023-05-17T02:57:45.199Z,100254.16
2023-05-17T03:00:14.093Z,100262.16
2023-05-17T03:02:42.044Z,100263.13
2023-05-17T03:05:10.295Z,100261.34
2023-05-17T03:07:38.953Z,100259.66
2023-05-17T03:10:09.069Z,100261.34
2023-05-17T03:12:36.968Z,100264.78
2023-05-17T03:15:05.449Z,100262.41
2023-05-17T03:17:33.572Z,100264.22
2023-05-17T03:20:01.626Z,100270.16
2023-05-17T03:22:29.621Z,100277.09
2023-05-17T03:24:57.516Z,100273.34
2023-05-17T03:27:27.012Z,100273.22
2023-05-17T03:29:55.036Z,100269.50
2023-05-17T03:32:22.967Z,100268.56
2023-05-17T03:34:50.959Z,100260.69
2023-05-17T03:37:18.828Z,100266.59
2023-05-17T03:39:46.812Z,100267.56
2023-05-17T03:42:14.730Z,100257.34
2023-05-17T03:44:44.126Z,100263.16
2023-05-17T03:47:12.148Z,100270.06
2023-05-17T03:49:40.129Z,100269.09
2023-05-17T03:52:08.265Z,100267.84
2023-05-17T03:54:36.252Z,100269.53
2023-05-17T03:57:04.190Z,100270.91
2023-05-17T03:59:32.212Z,100265.53
2023-05-17T04:02:01.789Z,100274.38
2023-05-17T04:04:29.797Z,100269.00
2023-05-17T04:06:57.950Z,100275.19
2023-05-17T04:09:25.933Z,100271.50
2023-05-17T04:11:53.811Z,100273.28
2023-05-17T04:14:22.479Z,100276.47
2023-05-17T04:16:50.482Z,100275.63
2023-05-17T04:19:19.976Z,100293.03
2023-05-17T04:21:48.608Z,100298.44
2023-05-17T04:24:18.771Z,100302.75
2023-05-17T04:26:46.687Z,100299.28
2023-05-17T04:29:14.714Z,100296.50
2023-05-17T04:31:43.068Z,100290.03
2023-05-17T04:34:11.072Z,100297.75
2023-05-17T04:36:40.530Z,100304.81
2023-05-17T04:39:08.423Z,100304.56
2023-05-17T04:41:36.346Z,100303.84
2023-05-17T04:44:04.265Z,100303.28
2023-05-17T04:46:32.206Z,100295.13
2023-05-17T04:49:00.355Z,100291.66
2023-05-17T04:51:28.730Z,100286.94
2023-05-17T04:53:58.497Z,100280.97
2023-05-17T04:56:26.589Z,100276.00
2023-05-17T04:58:54.559Z,100270.75
2023-05-17T05:01:22.797Z,100268.69
2023-05-17T05:03:50.891Z,100274.75
2023-05-17T05:06:18.852Z,100276.28
2023-05-17T05:08:46.921Z,100292.31
2023-05-17T05:11:16.490Z,100295.88
2023-05-17T05:13:44.408Z,100303.88
2023-05-17T05:16:12.361Z,100291.59
2023-05-17T05:18:40.499Z,100292.31
2023-05-17T05:21:08.550Z,100297.28
2023-05-17T05:23:36.517Z,100304.88
2023-05-17T05:26:05.328Z,100311.94
2023-05-17T05:28:34.649Z,100304.06
2023-05-17T05:31:02.767Z,100311.22
2023-05-17T05:33:32.053Z,100307.78
2023-05-17T05:36:00.156Z,100314.94
2023-05-17T05:38:28.200Z,100310.53
2023-05-17T05:40:56.199Z,100313.31
2023-05-17T05:45:36.993Z,100330.94
2023-05-17T05:48:07.396Z,100328.03
2023-05-17T05:50:35.859Z,100339.13
2023-05-17T05:53:17.383Z,100344.34
2023-05-17T05:55:46.482Z,100345.53
2023-05-17T05:58:14.525Z,100344.25
2023-05-17T06:00:43.806Z,100345.00
2023-05-17T06:03:11.865Z,100345.75
2023-05-17T06:05:40.607Z,100346.22
2023-05-17T06:08:08.811Z,100354.19
2023-05-17T06:10:36.761Z,100342.31
2023-05-17T06:13:04.823Z,100352.06
2023-05-17T06:15:35.621Z,100357.59
2023-05-17T06:18:05.511Z,100359.34
2023-05-17T06:20:33.409Z,100367.31
2023-05-17T06:23:01.979Z,100369.72
2023-05-17T06:25:29.975Z,100372.81
2023-05-17T06:27:57.865Z,100365.69
2023-05-17T06:30:27.944Z,100370.78
2023-05-17T06:32:56.532Z,100377.41
2023-05-17T06:35:25.917Z,100389.06
2023-05-17T06:37:53.928Z,100388.78
2023-05-17T06:40:21.970Z,100387.94
2023-05-17T06:42:49.983Z,100393.50
2023-05-17T06:45:18.087Z,100393.34
2023-05-17T06:47:46.295Z,100387.16
2023-05-17T06:50:14.369Z,100392.09
2023-05-17T06:52:43.629Z,100395.59
2023-05-17T06:55:11.666Z,100397.78
2023-05-17T06:57:39.628Z,100399.44
2023-05-17T07:00:11.363Z,100408.28
2023-05-17T07:02:39.663Z,100404.84
2023-05-17T07:05:08.500Z,100394.50
2023-05-17T07:07:36.599Z,100405.22
2023-05-17T07:10:07.163Z,100406.66
2023-05-17T07:12:35.287Z,100420.44
2023-05-17T07:15:03.308Z,100437.53
2023-05-17T07:17:31.340Z,100443.72
2023-05-17T07:19:59.362Z,100452.88
2023-05-17T07:22:27.373Z,100455.38
2023-05-17T07:24:55.366Z,100465.00
2023-05-17T07:27:24.896Z,100479.09
2023-05-17T07:29:52.865Z,100465.09
2023-05-17T07:32:20.938Z,100463.84
2023-05-17T07:34:48.930Z,100472.72
2023-05-17T07:37:19.114Z,100456.88
2023-05-17T07:39:47.145Z,100478.56
2023-05-17T07:42:15.104Z,100483.25
2023-05-17T07:44:44.436Z,100504.97
2023-05-17T07:47:12.542Z,100515.53
2023-05-17T07:49:40.554Z,100524.28
2023-05-17T07:52:08.733Z,100536.81
2023-05-17T07:54:36.699Z,100542.44
2023-05-17T07:57:04.878Z,100548.59
2023-05-17T07:59:32.989Z,100553.63
2023-05-17T08:02:03.038Z,100558.19
2023-05-17T08:04:31.020Z,100573.75
2023-05-17T08:07:00.974Z,100594.38
2023-05-17T08:09:28.911Z,100605.69
2023-05-17T08:11:57.535Z,100609.97
2023-05-17T08:14:27.055Z,100613.59
2023-05-17T08:16:55.013Z,100624.22
2023-05-17T08:19:24.440Z,100625.44
2023-05-17T08:21:52.543Z,100625.72
2023-05-17T08:24:20.917Z,100636.31
2023-05-17T08:26:48.817Z,100649.88
2023-05-17T08:29:17.180Z,100645.25
2023-05-17T08:31:45.597Z,100648.94
2023-05-17T08:34:13.579Z,100652.09
2023-05-17T08:36:42.985Z,100660.75
2023-05-17T08:39:11.540Z,100663.16
2023-05-17T08:41:39.548Z,100673.66
2023-05-17T08:44:07.855Z,100679.53
2023-05-17T08:46:37.007Z,100684.75
2023-05-17T08:49:07.232Z,100691.06
2023-05-17T08:51:36.088Z,100695.41
2023-05-17T08:54:08.458Z,100694.66
2023-05-17T08:56:40.222Z,100693.91
2023-05-17T08:59:10.633Z,100705.91
2023-05-17T09:01:41.950Z,100713.31
2023-05-17T09:04:10.184Z,100720.69
2023-05-17T09:06:38.630Z,100724.47
2023-05-17T09:09:08.688Z,100730.50
2023-05-17T09:11:36.794Z,100730.75
2023-05-17T09:14:06.154Z,100730.94
2023-05-17T09:16:36.333Z,100735.88
2023-05-17T09:19:05.954Z,100739.59
2023-05-17T09:21:34.856Z,100751.09
2023-05-17T09:24:07.200Z,100761.50
2023-05-17T09:26:41.955Z,100759.72
2023-05-17T09:29:11.605Z,100751.91
2023-05-17T09:31:40.617Z,100756.13
2023-05-17T09:34:09.336Z,100754.34
2023-05-17T09:36:39.305Z,100749.66
2023-05-17T09:39:12.229Z,100746.03
2023-05-17T09:41:46.974Z,100759.88
2023-05-17T09:44:15.806Z,100773.06
2023-05-17T09:46:45.865Z,100774.66
2023-05-17T09:49:14.216Z,100782.88
2023-05-17T09:51:43.808Z,100783.66
2023-05-17T09:54:12.241Z,100780.03
2023-05-17T09:56:41.165Z,100788.59
2023-05-17T09:59:14.754Z,100793.78
2023-05-17T10:01:45.508Z,100793.13
2023-05-17T10:04:14.710Z,100798.31
2023-05-17T10:06:49.853Z,100801.44
2023-05-17T10:09:22.455Z,100807.47
2023-05-17T10:11:53.645Z,100816.09
2023-05-17T10:14:28.165Z,100811.59
2023-05-17T10:16:57.279Z,100821.22
2023-05-17T10:19:26.806Z,100825.88
2023-05-17T10:22:00.285Z,100835.34
2023-05-17T10:24:36.765Z,100840.47
2023-05-17T10:27:06.557Z,100846.53
2023-05-17T10:29:36.399Z,100853.47
2023-05-17T10:32:07.377Z,100866.47
2023-05-17T10:34:36.760Z,100858.75
2023-05-17T10:37:05.861Z,100870.66
2023-05-17T10:39:38.472Z,100873.09
2023-05-17T10:44:41.918Z,100875.44
2023-05-17T10:47:10.174Z,100884.13
2023-05-17T10:49:41.493Z,100880.66
2023-05-17T10:52:14.501Z,100882.44
2023-05-17T10:54:44.433Z,100885.59
2023-05-17T10:57:21.508Z,100880.66
2023-05-17T11:00:01.921Z,100899.88
2023-05-17T11:02:30.327Z,100903.22
2023-05-17T11:05:00.442Z,100906.69
2023-05-17T11:07:29.592Z,100901.66
2023-05-17T11:10:07.282Z,100901.22
2023-05-17T11:12:38.502Z,100897.84
2023-05-17T11:15:11.812Z,100907.16
2023-05-17T11:17:54.151Z,100908.66
2023-05-17T11:20:33.276Z,100917.13
2023-05-17T11:23:04.252Z,100914.78
2023-05-17T11:25:35.737Z,100920.09
2023-05-17T11:28:09.235Z,100923.63
2023-05-17T11:30:43.647Z,100929.31
2023-05-17T11:33:21.036Z,100928.31
2023-05-17T11:35:57.694Z,100931.91
2023-05-17T11:38:30.525Z,100933.06
2023-05-17T11:40:58.756Z,100936.84
2023-05-17T11:43:31.034Z,100936.09
2023-05-17T11:46:02.530Z,100938.69
2023-05-17T11:48:31.722Z,100946.34
2023-05-17T11:51:02.112Z,100946.91
2023-05-17T11:53:32.612Z,100952.81
2023-05-17T11:56:04.233Z,100956.13
2023-05-17T11:58:33.252Z,100958.81
2023-05-17T12:01:03.977Z,100973.34
2023-05-17T12:03:33.408Z,100967.88
2023-05-17T12:06:07.167Z,100965.94
2023-05-17T12:08:36.265Z,100971.06
2023-05-17T12:11:05.752Z,100979.28
2023-05-17T12:13:36.241Z,100976.41
2023-05-17T12:16:10.451Z,100988.44
2023-05-17T12:18:39.185Z,100997.34
2023-05-17T12:21:07.944Z,100989.34
2023-05-17T12:23:39.651Z,101000.34
2023-05-17T12:26:09.371Z,101003.13
2023-05-17T12:28:38.302Z,101009.13
2023-05-17T12:31:10.363Z,101017.09
2023-05-17T12:33:41.341Z,101021.72
2023-05-17T12:36:10.711Z,101023.72
2023-05-17T12:38:41.349Z,101034.16
2023-05-17T12:41:11.867Z,101038.47
2023-05-17T12:43:40.732Z,101043.75
2023-05-17T12:46:12.940Z,101053.41
2023-05-17T12:48:42.314Z,101049.97
2023-05-17T12:51:12.493Z,101049.13
2023-05-17T12:53:41.838Z,101063.75
2023-05-17T12:56:18.146Z,101060.72
2023-05-17T12:59:04.343Z,101064.94
2023-05-17T13:01:36.235Z,101061.47
2023-05-17T13:04:04.890Z,101065.19
2023-05-17T13:06:45.050Z,101070.31
2023-05-17T13:09:14.483Z,101073.09
2023-05-17T13:11:42.896Z,101071.50
2023-05-17T13:14:12.515Z,101084.31
2023-05-17T13:16:42.888Z,101081.72
2023-05-17T13:19:15.272Z,101091.81
2023-05-17T13:21:43.444Z,101092.56
2023-05-17T13:24:11.655Z,101101.41
2023-05-17T13:26:39.588Z,101104.84
2023-05-17T13:29:07.619Z,101105.53
2023-05-17T13:31:35.904Z,101102.91
2023-05-17T13:34:05.346Z,101110.22
2023-05-17T13:36:33.247Z,101118.72
2023-05-17T13:39:02.030Z,101115.00
2023-05-17T13:41:29.969Z,101111.34
2023-05-17T13:43:58.391Z,101119.06
2023-05-17T13:46:26.518Z,101124.28
2023-05-17T13:48:54.617Z,101125.09
2023-05-17T13:51:25.471Z,101134.53
2023-05-17T13:53:53.508Z,101142.19
2023-05-17T13:56:22.424Z,101149.31
2023-05-17T13:58:50.643Z,101151.00
2023-05-17T14:01:19.000Z,101158.81
2023-05-17T14:03:47.262Z,101158.66
2023-05-17T14:06:15.339Z,101161.09
2023-05-17T14:08:46.300Z,101161.69
2023-05-17T14:11:14.292Z,101171.19
2023-05-17T14:13:42.814Z,101178.00
2023-05-17T14:16:10.733Z,101187.50
2023-05-17T14:18:38.886Z,101185.34
2023-05-17T14:21:08.290Z,101183.31
2023-05-17T14:23:36.758Z,101189.19
2023-05-17T14:26:07.525Z,101195.91
2023-05-17T14:28:38.265Z,101192.53
2023-05-17T14:31:06.422Z,101211.13
2023-05-17T14:33:34.729Z,101216.63
2023-05-17T14:36:03.967Z,101216.69
2023-05-17T14:38:32.231Z,101221.16
2023-05-17T14:41:00.696Z,101224.69
2023-05-17T14:43:30.248Z,101238.63
2023-05-17T14:45:58.264Z,101239.72
2023-05-17T14:48:26.423Z,101237.63
2023-05-17T14:50:54.416Z,101241.84
2023-05-17T14:53:23.530Z,101246.03
2023-05-17T14:55:51.557Z,101246.81
2023-05-17T14:58:20.987Z,101253.63
2023-05-17T15:00:56.392Z,101249.09
2023-05-17T15:03:33.477Z,101255.66
2023-05-17T15:06:04.195Z,101262.53
2023-05-17T15:08:34.764Z,101263.22
2023-05-17T15:11:03.177Z,101267.34
2023-05-17T15:13:34.136Z,101262.81
2023-05-17T15:16:04.683Z,101274.53
2023-05-17T15:18:36.607Z,101274.88
2023-05-17T15:21:04.801Z,101278.81
2023-05-17T15:23:32.945Z,101285.22
2023-05-17T15:26:00.914Z,101276.22
2023-05-17T15:28:28.937Z,101284.63
2023-05-17T15:31:10.567Z,101284.63
2023-05-17T15:33:39.575Z,101284.44
2023-05-17T15:36:08.218Z,101288.69
2023-05-17T15:38:36.461Z,101287.72
2023-05-17T15:41:05.899Z,101293.56
2023-05-17T15:43:35.054Z,101288.16
2023-05-17T15:46:04.422Z,101285.47
2023-05-17T15:48:34.067Z,101287.06
2023-05-17T15:51:02.316Z,101299.59
2023-05-17T15:53:31.250Z,101305.19
2023-05-17T15:55:59.112Z,101308.13
2023-05-17T15:58:28.688Z,101310.03
2023-05-17T16:00:56.732Z,101317.53
2023-05-17T16:03:26.193Z,101322.03
2023-05-17T16:05:54.163Z,101319.81
2023-05-17T16:08:23.260Z,101318.63
2023-05-17T16:10:51.234Z,101314.97
2023-05-17T16:13:19.233Z,101322.81
2023-05-17T16:15:47.243Z,101311.78
2023-05-17T16:18:15.506Z,101317.25
2023-05-17T16:20:45.528Z,101318.72
2023-05-17T16:23:13.473Z,101325.91
2023-05-17T16:25:41.624Z,101322.59
2023-05-17T16:28:09.506Z,101315.72
2023-05-17T16:30:37.583Z,101325.38
2023-05-17T16:33:07.702Z,101328.00
2023-05-17T16:35:36.528Z,101331.28
2023-05-17T16:38:05.912Z,101339.03
2023-05-17T16:40:34.118Z,101338.09
2023-05-17T16:43:02.259Z,101359.19
2023-05-17T16:45:30.426Z,101363.66
2023-05-17T16:47:58.569Z,101376.81
2023-05-17T16:50:26.738Z,101382.94
2023-05-17T16:52:54.690Z,101397.97
2023-05-17T16:55:23.997Z,101410.34
2023-05-17T16:57:52.065Z,101404.44
2023-05-17T17:00:20.881Z,101416.84
2023-05-17T17:02:48.901Z,101396.78
2023-05-17T17:05:17.197Z,101394.34
2023-05-17T17:07:45.971Z,101393.50
2023-05-17T17:10:14.155Z,101393.25
2023-05-17T17:12:43.511Z,101399.06
2023-05-17T17:15:12.001Z,101403.19
2023-05-17T17:17:40.237Z,101405.72
2023-05-17T17:22:21.009Z,101414.72
2023-05-17T17:24:48.923Z,101423.50
2023-05-17T17:27:16.926Z,101431.41
2023-05-17T17:29:44.836Z,101443.78
2023-05-17T17:32:12.802Z,101434.19
2023-05-17T17:34:40.997Z,101449.09
2023-05-17T17:37:08.872Z,101456.75
2023-05-17T17:39:38.219Z,101450.47
2023-05-17T17:42:06.562Z,101459.13
2023-05-17T17:44:34.562Z,101462.34
2023-05-17T17:47:02.536Z,101461.31
2023-05-17T17:49:31.038Z,101459.31
2023-05-17T17:51:59.184Z,101461.84
2023-05-17T17:54:27.153Z,101472.97
2023-05-17T17:56:58.780Z,101472.03
2023-05-17T17:59:26.767Z,101485.94
2023-05-17T18:01:54.715Z,101480.81
2023-05-17T18:04:22.779Z,101487.03
2023-05-17T18:06:50.809Z,101482.66
2023-05-17T18:09:18.756Z,101482.75
2023-05-17T18:11:46.657Z,101495.97
2023-05-17T18:14:16.114Z,101507.34
2023-05-17T18:16:44.038Z,101512.75
2023-05-17T18:19:12.104Z,101528.59
2023-05-17T18:21:41.636Z,101536.66
2023-05-17T18:24:10.229Z,101542.06
2023-05-17T18:26:38.123Z,101557.97
2023-05-17T18:29:06.233Z,101565.97
2023-05-17T18:31:35.881Z,101570.66
2023-05-17T18:34:04.151Z,101577.81
2023-05-17T18:36:32.411Z,101601.47
2023-05-17T18:39:01.076Z,101602.69
2023-05-17T18:41:29.436Z,101611.91
2023-05-17T18:44:01.961Z,101600.03
2023-05-17T18:46:30.987Z,101592.19
2023-05-17T18:49:00.739Z,101602.16
2023-05-17T18:51:29.066Z,101619.72
2023-05-17T18:53:57.358Z,101623.50
2023-05-17T18:56:26.446Z,101621.03
2023-05-17T18:58:55.053Z,101611.53
2023-05-17T19:01:23.920Z,101608.94
2023-05-17T19:03:55.334Z,101615.75
2023-05-17T19:06:25.588Z,101611.53
2023-05-17T19:08:54.644Z,101614.38
2023-05-17T19:11:23.507Z,101617.91
2023-05-17T19:13:51.875Z,101620.75
2023-05-17T19:16:20.306Z,101622.56
2023-05-17T19:18:48.693Z,101633.88
2023-05-17T19:21:18.656Z,101629.53
2023-05-17T19:23:49.599Z,101637.63
2023-05-17T19:26:17.893Z,101649.06
2023-05-17T19:28:46.658Z,101649.34
2023-05-17T19:31:15.117Z,101654.00
2023-05-17T19:33:43.685Z,101655.00
2023-05-17T19:36:12.134Z,101662.97
2023-05-17T19:38:40.465Z,101660.50
2023-05-17T19:41:10.386Z,101665.78
2023-05-17T19:43:38.774Z,101674.63
2023-05-17T19:46:10.673Z,101671.94
2023-05-17T19:48:40.789Z,101680.84
2023-05-17T19:51:09.104Z,101681.03
2023-05-17T19:53:51.543Z,101689.00
2023-05-17T19:56:24.742Z,101691.03
2023-05-17T19:58:54.228Z,101695.53
2023-05-17T20:01:22.886Z,101694.19
2023-05-17T20:03:52.439Z,101710.88
2023-05-17T20:06:21.068Z,101705.81
2023-05-17T20:08:49.408Z,101708.28
2023-05-17T20:11:17.755Z,101714.53
2023-05-17T20:13:47.689Z,101716.56
2023-05-17T20:16:16.110Z,101720.00
2023-05-17T20:18:45.790Z,101727.06
2023-05-17T20:21:18.299Z,101732.34
2023-05-17T20:23:47.317Z,101740.22
2023-05-17T20:26:19.003Z,101743.63
2023-05-17T20:28:48.743Z,101748.91
2023-05-17T20:31:17.051Z,101743.81
2023-05-17T20:33:45.354Z,101745.81
2023-05-17T20:36:14.885Z,101750.25
2023-05-17T20:38:43.833Z,101751.56
2023-05-17T20:41:12.936Z,101759.50
2023-05-17T20:43:40.922Z,101769.38
2023-05-17T20:46:10.602Z,101771.34
2023-05-17T20:48:39.641Z,101775.63
2023-05-17T20:51:07.572Z,101774.72
2023-05-17T20:53:35.572Z,101782.47
2023-05-17T20:56:03.712Z,101779.03
2023-05-17T20:58:32.003Z,101774.72
2023-05-17T21:01:01.245Z,101783.50
2023-05-17T21:03:33.334Z,101786.97
2023-05-17T21:06:02.217Z,101795.66
2023-05-17T21:08:30.188Z,101797.75
2023-05-17T21:10:58.073Z,101806.66
2023-05-17T21:13:26.483Z,101808.22
2023-05-17T21:15:55.618Z,101811.69
2023-05-17T21:18:24.292Z,101809.22
2023-05-17T21:20:55.109Z,101815.31
2023-05-17T21:23:23.121Z,101814.53
2023-05-17T21:25:51.061Z,101820.75
2023-05-17T21:28:19.049Z,101819.19
2023-05-17T21:30:47.066Z,101829.03
2023-05-17T21:33:15.111Z,101833.72
2023-05-17T21:35:43.060Z,101833.16
2023-05-17T21:38:12.418Z,101836.22
2023-05-17T21:40:40.719Z,101843.50
2023-05-17T21:43:09.894Z,101847.16
2023-05-17T21:45:37.964Z,101847.31
2023-05-17T21:48:06.625Z,101850.25
2023-05-17T21:50:34.889Z,101858.31
2023-05-17T21:53:03.498Z,101855.84
2023-05-17T21:55:40.917Z,101846.25
2023-05-17T21:58:16.335Z,101854.97
2023-05-17T22:00:44.186Z,101864.97
2023-05-17T22:03:12.371Z,101864.44
2023-05-17T22:05:40.456Z,101874.94
2023-05-17T22:08:08.444Z,101874.94
2023-05-17T22:10:37.742Z,101878.34
2023-05-17T22:13:08.088Z,101885.31
2023-05-17T22:15:36.352Z,101893.50
2023-05-17T22:18:05.260Z,101890.09
2023-05-17T22:20:33.477Z,101893.59
2023-05-17T22:23:01.570Z,101890.31
2023-05-17T22:25:29.559Z,101897.34
2023-05-17T22:27:58.876Z,101899.31
2023-05-17T22:30:26.888Z,101905.50
2023-05-17T22:32:57.233Z,101906.59
2023-05-17T22:35:25.655Z,101909.38
2023-05-17T22:37:53.726Z,101917.97
2023-05-17T22:40:21.787Z,101915.38
2023-05-17T22:42:51.910Z,101910.16
2023-05-17T22:45:21.357Z,101923.78
2023-05-17T22:47:50.774Z,101923.78
2023-05-17T22:50:19.258Z,101926.63
2023-05-17T22:52:47.330Z,101940.84
2023-05-17T22:55:18.107Z,101935.78
2023-05-17T22:57:49.164Z,101941.06
2023-05-17T23:00:18.080Z,101943.81
2023-05-17T23:02:47.598Z,101939.66
2023-05-17T23:05:15.784Z,101946.84
2023-05-17T23:07:43.968Z,101958.06
2023-05-17T23:10:12.673Z,101955.59
2023-05-17T23:12:40.666Z,101954.69
2023-05-17T23:15:10.626Z,101958.00
2023-05-17T23:17:39.092Z,101963.28
2023-05-17T23:20:12.125Z,101970.25
2023-05-17T23:22:40.671Z,101973.91
2023-05-17T23:25:09.265Z,101975.56
2023-05-17T23:27:37.502Z,101978.41
2023-05-17T23:30:06.739Z,101980.22
2023-05-17T23:32:34.996Z,101984.50
2023-05-17T23:35:04.950Z,101988.63
2023-05-17T23:37:34.834Z,101995.53
2023-05-17T23:40:04.979Z,101999.09
2023-05-17T23:42:32.913Z,102002.00
2023-05-17T23:45:01.863Z,102006.38
2023-05-17T23:47:30.781Z,102012.72
2023-05-17T23:49:58.713Z,102014.63
2023-05-17T23:52:30.065Z,102025.97
2023-05-17T23:54:59.525Z,102019.28
2023-05-17T23:57:27.377Z,102021.88
2023-05-17T23:59:55.307Z,102033.19
